sensor_id;sensor_type;location;lat;lon;timestamp;P1;durP1;ratioP1;P2;durP2;ratioP2
81821;SDS011;71257;52.192;5.654;2023-08-07T00:02:00;6.32;;;1.60;;
81821;SDS011;71257;52.192;5.654;2023-08-07T00:04:26;3.80;;;1.40;;
81821;SDS011;71257;52.192;5.654;2023-08-07T00:06:51;6.45;;;1.83;;
81821;SDS011;71257;52.192;5.654;2023-08-07T00:09:17;6.07;;;1.70;;
81821;SDS011;71257;52.192;5.654;2023-08-07T00:11:42;3.87;;;1.40;;
81821;SDS011;71257;52.192;5.654;2023-08-07T00:14:07;6.53;;;1.60;;
81821;SDS011;71257;52.192;5.654;2023-08-07T00:16:33;2.70;;;1.38;;
81821;SDS011;71257;52.192;5.654;2023-08-07T00:18:58;5.03;;;1.73;;
81821;SDS011;71257;52.192;5.654;2023-08-07T00:21:24;7.53;;;1.90;;
81821;SDS011;71257;52.192;5.654;2023-08-07T00:23:49;4.90;;;1.60;;
81821;SDS011;71257;52.192;5.654;2023-08-07T00:26:15;3.13;;;1.33;;
81821;SDS011;71257;52.192;5.654;2023-08-07T00:28:40;3.58;;;1.60;;
81821;SDS011;71257;52.192;5.654;2023-08-07T00:31:06;5.28;;;1.67;;
81821;SDS011;71257;52.192;5.654;2023-08-07T00:33:31;4.07;;;1.60;;
81821;SDS011;71257;52.192;5.654;2023-08-07T00:35:57;8.23;;;1.92;;
81821;SDS011;71257;52.192;5.654;2023-08-07T00:38:22;5.90;;;1.52;;
81821;SDS011;71257;52.192;5.654;2023-08-07T00:40:47;6.93;;;2.28;;
81821;SDS011;71257;52.192;5.654;2023-08-07T00:43:13;7.57;;;1.73;;
81821;SDS011;71257;52.192;5.654;2023-08-07T00:45:41;5.78;;;2.00;;
81821;SDS011;71257;52.192;5.654;2023-08-07T00:48:08;5.72;;;1.80;;
81821;SDS011;71257;52.192;5.654;2023-08-07T00:50:34;7.65;;;2.00;;
81821;SDS011;71257;52.192;5.654;2023-08-07T00:53:00;9.07;;;2.10;;
81821;SDS011;71257;52.192;5.654;2023-08-07T00:55:25;5.55;;;1.80;;
81821;SDS011;71257;52.192;5.654;2023-08-07T00:57:51;6.60;;;1.88;;
81821;SDS011;71257;52.192;5.654;2023-08-07T01:00:16;8.00;;;2.10;;
81821;SDS011;71257;52.192;5.654;2023-08-07T01:02:42;7.90;;;2.00;;
81821;SDS011;71257;52.192;5.654;2023-08-07T01:05:08;8.32;;;2.25;;
81821;SDS011;71257;52.192;5.654;2023-08-07T01:07:34;5.30;;;2.00;;
81821;SDS011;71257;52.192;5.654;2023-08-07T01:09:59;9.05;;;2.17;;
81821;SDS011;71257;52.192;5.654;2023-08-07T01:12:29;7.68;;;2.38;;
81821;SDS011;71257;52.192;5.654;2023-08-07T01:14:59;5.82;;;2.63;;
81821;SDS011;71257;52.192;5.654;2023-08-07T01:17:39;7.38;;;2.22;;
81821;SDS011;71257;52.192;5.654;2023-08-07T01:20:08;6.93;;;2.45;;
81821;SDS011;71257;52.192;5.654;2023-08-07T01:22:34;7.25;;;2.47;;
81821;SDS011;71257;52.192;5.654;2023-08-07T01:24:59;10.30;;;2.17;;
81821;SDS011;71257;52.192;5.654;2023-08-07T01:27:34;8.18;;;2.58;;
81821;SDS011;71257;52.192;5.654;2023-08-07T01:30:19;9.95;;;2.88;;
81821;SDS011;71257;52.192;5.654;2023-08-07T01:32:57;9.23;;;2.30;;
81821;SDS011;71257;52.192;5.654;2023-08-07T01:35:29;6.32;;;1.65;;
81821;SDS011;71257;52.192;5.654;2023-08-07T01:38:01;8.45;;;2.25;;
81821;SDS011;71257;52.192;5.654;2023-08-07T01:40:28;6.90;;;2.30;;
81821;SDS011;71257;52.192;5.654;2023-08-07T01:42:55;6.20;;;2.00;;
81821;SDS011;71257;52.192;5.654;2023-08-07T01:45:24;5.65;;;2.10;;
81821;SDS011;71257;52.192;5.654;2023-08-07T01:47:51;8.00;;;2.00;;
81821;SDS011;71257;52.192;5.654;2023-08-07T01:50:17;6.30;;;2.38;;
81821;SDS011;71257;52.192;5.654;2023-08-07T01:52:43;6.53;;;2.53;;
81821;SDS011;71257;52.192;5.654;2023-08-07T01:55:09;5.82;;;1.90;;
81821;SDS011;71257;52.192;5.654;2023-08-07T01:57:34;5.35;;;1.90;;
81821;SDS011;71257;52.192;5.654;2023-08-07T02:00:00;7.07;;;2.50;;
81821;SDS011;71257;52.192;5.654;2023-08-07T02:02:25;6.30;;;1.77;;
81821;SDS011;71257;52.192;5.654;2023-08-07T02:04:50;8.40;;;2.23;;
81821;SDS011;71257;52.192;5.654;2023-08-07T02:07:16;6.10;;;2.00;;
81821;SDS011;71257;52.192;5.654;2023-08-07T02:09:41;6.27;;;1.83;;
81821;SDS011;71257;52.192;5.654;2023-08-07T02:12:06;6.80;;;1.95;;
81821;SDS011;71257;52.192;5.654;2023-08-07T02:14:33;5.43;;;2.03;;
81821;SDS011;71257;52.192;5.654;2023-08-07T02:16:58;9.02;;;1.90;;
81821;SDS011;71257;52.192;5.654;2023-08-07T02:19:23;8.80;;;2.22;;
81821;SDS011;71257;52.192;5.654;2023-08-07T02:21:49;6.57;;;1.90;;
81821;SDS011;71257;52.192;5.654;2023-08-07T02:24:14;5.00;;;1.80;;
81821;SDS011;71257;52.192;5.654;2023-08-07T02:26:40;5.67;;;1.67;;
81821;SDS011;71257;52.192;5.654;2023-08-07T02:29:05;4.57;;;2.08;;
81821;SDS011;71257;52.192;5.654;2023-08-07T02:31:32;6.50;;;1.80;;
81821;SDS011;71257;52.192;5.654;2023-08-07T02:33:57;5.07;;;2.00;;
81821;SDS011;71257;52.192;5.654;2023-08-07T02:36:23;6.17;;;2.03;;
81821;SDS011;71257;52.192;5.654;2023-08-07T02:38:48;7.93;;;1.88;;
81821;SDS011;71257;52.192;5.654;2023-08-07T02:41:13;9.53;;;2.40;;
81821;SDS011;71257;52.192;5.654;2023-08-07T02:43:39;6.05;;;1.80;;
81821;SDS011;71257;52.192;5.654;2023-08-07T02:46:04;7.20;;;2.53;;
81821;SDS011;71257;52.192;5.654;2023-08-07T02:48:30;8.10;;;2.47;;
81821;SDS011;71257;52.192;5.654;2023-08-07T02:50:55;8.23;;;2.27;;
81821;SDS011;71257;52.192;5.654;2023-08-07T02:53:20;11.53;;;2.33;;
81821;SDS011;71257;52.192;5.654;2023-08-07T02:55:46;5.57;;;1.90;;
81821;SDS011;71257;52.192;5.654;2023-08-07T02:58:11;10.23;;;2.27;;
81821;SDS011;71257;52.192;5.654;2023-08-07T03:00:36;6.95;;;2.22;;
81821;SDS011;71257;52.192;5.654;2023-08-07T03:03:02;5.65;;;1.80;;
81821;SDS011;71257;52.192;5.654;2023-08-07T03:05:27;6.22;;;2.05;;
81821;SDS011;71257;52.192;5.654;2023-08-07T03:07:54;5.65;;;1.90;;
81821;SDS011;71257;52.192;5.654;2023-08-07T03:10:19;5.63;;;1.65;;
81821;SDS011;71257;52.192;5.654;2023-08-07T03:12:45;5.32;;;1.90;;
81821;SDS011;71257;52.192;5.654;2023-08-07T03:15:11;4.85;;;2.03;;
81821;SDS011;71257;52.192;5.654;2023-08-07T03:17:37;4.38;;;2.10;;
81821;SDS011;71257;52.192;5.654;2023-08-07T03:20:02;4.82;;;1.75;;
81821;SDS011;71257;52.192;5.654;2023-08-07T03:22:29;4.15;;;1.85;;
81821;SDS011;71257;52.192;5.654;2023-08-07T03:24:54;5.45;;;1.88;;
81821;SDS011;71257;52.192;5.654;2023-08-07T03:27:20;5.05;;;1.83;;
81821;SDS011;71257;52.192;5.654;2023-08-07T03:29:46;6.00;;;1.95;;
81821;SDS011;71257;52.192;5.654;2023-08-07T03:32:11;5.90;;;1.90;;
81821;SDS011;71257;52.192;5.654;2023-08-07T03:34:36;4.40;;;1.50;;
81821;SDS011;71257;52.192;5.654;2023-08-07T03:37:02;4.30;;;1.67;;
81821;SDS011;71257;52.192;5.654;2023-08-07T03:39:27;4.28;;;1.85;;
81821;SDS011;71257;52.192;5.654;2023-08-07T03:41:53;4.73;;;1.50;;
81821;SDS011;71257;52.192;5.654;2023-08-07T03:44:18;6.10;;;1.80;;
81821;SDS011;71257;52.192;5.654;2023-08-07T03:46:43;5.07;;;1.58;;
81821;SDS011;71257;52.192;5.654;2023-08-07T03:49:09;3.80;;;1.90;;
81821;SDS011;71257;52.192;5.654;2023-08-07T03:51:34;7.43;;;2.10;;
81821;SDS011;71257;52.192;5.654;2023-08-07T03:54:00;5.28;;;1.73;;
81821;SDS011;71257;52.192;5.654;2023-08-07T03:56:25;3.53;;;1.88;;
81821;SDS011;71257;52.192;5.654;2023-08-07T03:58:50;4.80;;;1.97;;
81821;SDS011;71257;52.192;5.654;2023-08-07T04:01:16;5.55;;;2.05;;
81821;SDS011;71257;52.192;5.654;2023-08-07T04:03:41;6.72;;;2.70;;
81821;SDS011;71257;52.192;5.654;2023-08-07T04:06:07;3.42;;;1.73;;
81821;SDS011;71257;52.192;5.654;2023-08-07T04:08:33;4.68;;;2.30;;
81821;SDS011;71257;52.192;5.654;2023-08-07T04:11:00;7.55;;;2.00;;
81821;SDS011;71257;52.192;5.654;2023-08-07T04:13:26;3.45;;;1.75;;
81821;SDS011;71257;52.192;5.654;2023-08-07T04:15:52;4.70;;;1.90;;
81821;SDS011;71257;52.192;5.654;2023-08-07T04:18:17;4.95;;;2.35;;
81821;SDS011;71257;52.192;5.654;2023-08-07T04:20:48;5.53;;;2.05;;
81821;SDS011;71257;52.192;5.654;2023-08-07T04:23:14;8.40;;;2.15;;
81821;SDS011;71257;52.192;5.654;2023-08-07T04:25:39;5.13;;;2.10;;
81821;SDS011;71257;52.192;5.654;2023-08-07T04:28:05;4.67;;;2.13;;
81821;SDS011;71257;52.192;5.654;2023-08-07T04:30:30;7.20;;;2.58;;
81821;SDS011;71257;52.192;5.654;2023-08-07T04:32:55;6.40;;;2.83;;
81821;SDS011;71257;52.192;5.654;2023-08-07T04:35:21;7.23;;;2.30;;
81821;SDS011;71257;52.192;5.654;2023-08-07T04:37:46;4.70;;;1.93;;
81821;SDS011;71257;52.192;5.654;2023-08-07T04:40:11;5.37;;;2.30;;
81821;SDS011;71257;52.192;5.654;2023-08-07T04:42:37;5.68;;;2.20;;
81821;SDS011;71257;52.192;5.654;2023-08-07T04:45:03;6.35;;;2.50;;
81821;SDS011;71257;52.192;5.654;2023-08-07T04:47:29;5.63;;;2.55;;
81821;SDS011;71257;52.192;5.654;2023-08-07T04:49:54;7.28;;;2.67;;
81821;SDS011;71257;52.192;5.654;2023-08-07T04:52:19;6.82;;;2.22;;
81821;SDS011;71257;52.192;5.654;2023-08-07T04:54:45;10.50;;;2.58;;
81821;SDS011;71257;52.192;5.654;2023-08-07T04:57:10;8.00;;;2.60;;
81821;SDS011;71257;52.192;5.654;2023-08-07T04:59:35;8.80;;;2.70;;
81821;SDS011;71257;52.192;5.654;2023-08-07T05:02:01;6.50;;;2.35;;
81821;SDS011;71257;52.192;5.654;2023-08-07T05:04:26;7.13;;;2.47;;
81821;SDS011;71257;52.192;5.654;2023-08-07T05:06:51;6.37;;;2.50;;
81821;SDS011;71257;52.192;5.654;2023-08-07T05:09:17;5.70;;;2.40;;
81821;SDS011;71257;52.192;5.654;2023-08-07T05:11:42;7.13;;;2.60;;
81821;SDS011;71257;52.192;5.654;2023-08-07T05:14:08;9.87;;;2.93;;
81821;SDS011;71257;52.192;5.654;2023-08-07T05:16:33;9.15;;;3.20;;
81821;SDS011;71257;52.192;5.654;2023-08-07T05:18:58;9.47;;;3.20;;
81821;SDS011;71257;52.192;5.654;2023-08-07T05:21:24;5.67;;;2.40;;
81821;SDS011;71257;52.192;5.654;2023-08-07T05:23:49;5.63;;;2.55;;
81821;SDS011;71257;52.192;5.654;2023-08-07T05:26:18;11.30;;;3.75;;
81821;SDS011;71257;52.192;5.654;2023-08-07T05:28:43;8.50;;;2.42;;
81821;SDS011;71257;52.192;5.654;2023-08-07T05:31:09;6.13;;;2.57;;
81821;SDS011;71257;52.192;5.654;2023-08-07T05:33:34;13.33;;;2.83;;
81821;SDS011;71257;52.192;5.654;2023-08-07T05:36:00;9.23;;;2.47;;
81821;SDS011;71257;52.192;5.654;2023-08-07T05:38:25;10.20;;;2.63;;
81821;SDS011;71257;52.192;5.654;2023-08-07T05:40:51;6.18;;;2.28;;
81821;SDS011;71257;52.192;5.654;2023-08-07T05:43:16;8.25;;;2.95;;
81821;SDS011;71257;52.192;5.654;2023-08-07T05:45:42;7.60;;;3.25;;
81821;SDS011;71257;52.192;5.654;2023-08-07T05:48:09;5.45;;;2.50;;
81821;SDS011;71257;52.192;5.654;2023-08-07T05:50:35;9.68;;;2.38;;
81821;SDS011;71257;52.192;5.654;2023-08-07T05:53:00;7.82;;;2.08;;
81821;SDS011;71257;52.192;5.654;2023-08-07T05:55:26;6.15;;;2.63;;
81821;SDS011;71257;52.192;5.654;2023-08-07T05:57:51;8.15;;;2.50;;
81821;SDS011;71257;52.192;5.654;2023-08-07T06:00:17;6.72;;;2.40;;
81821;SDS011;71257;52.192;5.654;2023-08-07T06:02:42;4.72;;;2.53;;
81821;SDS011;71257;52.192;5.654;2023-08-07T06:05:08;8.70;;;2.67;;
81821;SDS011;71257;52.192;5.654;2023-08-07T06:07:34;8.35;;;2.92;;
81821;SDS011;71257;52.192;5.654;2023-08-07T06:10:00;7.50;;;2.90;;
81821;SDS011;71257;52.192;5.654;2023-08-07T06:12:25;6.95;;;2.42;;
81821;SDS011;71257;52.192;5.654;2023-08-07T06:14:51;7.90;;;2.50;;
81821;SDS011;71257;52.192;5.654;2023-08-07T06:17:16;10.07;;;2.45;;
81821;SDS011;71257;52.192;5.654;2023-08-07T06:19:41;9.47;;;3.30;;
81821;SDS011;71257;52.192;5.654;2023-08-07T06:22:07;8.83;;;3.47;;
81821;SDS011;71257;52.192;5.654;2023-08-07T06:24:32;6.65;;;2.38;;
81821;SDS011;71257;52.192;5.654;2023-08-07T06:26:58;7.87;;;2.57;;
81821;SDS011;71257;52.192;5.654;2023-08-07T06:29:23;9.68;;;3.28;;
81821;SDS011;71257;52.192;5.654;2023-08-07T06:31:48;12.15;;;3.25;;
81821;SDS011;71257;52.192;5.654;2023-08-07T06:34:14;6.07;;;2.80;;
81821;SDS011;71257;52.192;5.654;2023-08-07T06:36:39;6.00;;;2.53;;
81821;SDS011;71257;52.192;5.654;2023-08-07T06:39:05;8.80;;;2.70;;
81821;SDS011;71257;52.192;5.654;2023-08-07T06:41:30;7.50;;;2.53;;
81821;SDS011;71257;52.192;5.654;2023-08-07T06:43:56;8.27;;;2.90;;
81821;SDS011;71257;52.192;5.654;2023-08-07T06:46:21;7.23;;;2.40;;
81821;SDS011;71257;52.192;5.654;2023-08-07T06:48:51;10.27;;;2.90;;
81821;SDS011;71257;52.192;5.654;2023-08-07T06:51:17;5.68;;;2.33;;
81821;SDS011;71257;52.192;5.654;2023-08-07T06:53:42;8.10;;;2.83;;
81821;SDS011;71257;52.192;5.654;2023-08-07T06:56:07;8.48;;;3.10;;
81821;SDS011;71257;52.192;5.654;2023-08-07T06:58:33;7.20;;;2.58;;
81821;SDS011;71257;52.192;5.654;2023-08-07T07:00:58;8.70;;;2.50;;
81821;SDS011;71257;52.192;5.654;2023-08-07T07:03:23;6.67;;;2.83;;
81821;SDS011;71257;52.192;5.654;2023-08-07T07:05:49;9.45;;;2.60;;
81821;SDS011;71257;52.192;5.654;2023-08-07T07:08:15;10.20;;;2.40;;
81821;SDS011;71257;52.192;5.654;2023-08-07T07:10:40;5.05;;;2.20;;
81821;SDS011;71257;52.192;5.654;2023-08-07T07:13:05;5.47;;;2.30;;
81821;SDS011;71257;52.192;5.654;2023-08-07T07:15:33;8.07;;;2.42;;
81821;SDS011;71257;52.192;5.654;2023-08-07T07:17:58;8.88;;;2.53;;
81821;SDS011;71257;52.192;5.654;2023-08-07T07:20:24;11.10;;;2.63;;
81821;SDS011;71257;52.192;5.654;2023-08-07T07:22:51;9.85;;;2.20;;
81821;SDS011;71257;52.192;5.654;2023-08-07T07:25:17;7.78;;;2.72;;
81821;SDS011;71257;52.192;5.654;2023-08-07T07:27:42;7.22;;;2.00;;
81821;SDS011;71257;52.192;5.654;2023-08-07T07:30:08;8.60;;;2.67;;
81821;SDS011;71257;52.192;5.654;2023-08-07T07:32:34;7.15;;;2.92;;
81821;SDS011;71257;52.192;5.654;2023-08-07T07:34:59;5.25;;;2.65;;
81821;SDS011;71257;52.192;5.654;2023-08-07T07:37:24;7.57;;;2.20;;
81821;SDS011;71257;52.192;5.654;2023-08-07T07:39:50;4.60;;;2.53;;
81821;SDS011;71257;52.192;5.654;2023-08-07T07:42:15;6.35;;;2.33;;
81821;SDS011;71257;52.192;5.654;2023-08-07T07:44:41;7.60;;;2.97;;
81821;SDS011;71257;52.192;5.654;2023-08-07T07:47:07;7.40;;;3.25;;
81821;SDS011;71257;52.192;5.654;2023-08-07T07:49:33;7.22;;;2.65;;
81821;SDS011;71257;52.192;5.654;2023-08-07T07:51:58;6.47;;;2.80;;
81821;SDS011;71257;52.192;5.654;2023-08-07T07:54:24;9.68;;;3.15;;
81821;SDS011;71257;52.192;5.654;2023-08-07T07:56:49;7.75;;;2.88;;
81821;SDS011;71257;52.192;5.654;2023-08-07T07:59:15;6.07;;;2.20;;
81821;SDS011;71257;52.192;5.654;2023-08-07T08:01:41;9.13;;;2.85;;
81821;SDS011;71257;52.192;5.654;2023-08-07T08:04:06;5.63;;;2.78;;
81821;SDS011;71257;52.192;5.654;2023-08-07T08:06:32;7.88;;;2.97;;
81821;SDS011;71257;52.192;5.654;2023-08-07T08:08:57;6.85;;;2.50;;
81821;SDS011;71257;52.192;5.654;2023-08-07T08:11:24;8.65;;;2.40;;
81821;SDS011;71257;52.192;5.654;2023-08-07T08:13:50;5.70;;;2.20;;
81821;SDS011;71257;52.192;5.654;2023-08-07T08:16:15;6.63;;;2.85;;
81821;SDS011;71257;52.192;5.654;2023-08-07T08:18:40;13.13;;;3.03;;
81821;SDS011;71257;52.192;5.654;2023-08-07T08:21:06;5.45;;;2.40;;
81821;SDS011;71257;52.192;5.654;2023-08-07T08:23:31;6.72;;;2.20;;
81821;SDS011;71257;52.192;5.654;2023-08-07T08:25:57;7.28;;;2.33;;
81821;SDS011;71257;52.192;5.654;2023-08-07T08:28:22;7.35;;;2.20;;
81821;SDS011;71257;52.192;5.654;2023-08-07T08:30:48;9.27;;;3.28;;
81821;SDS011;71257;52.192;5.654;2023-08-07T08:33:13;8.15;;;2.85;;
81821;SDS011;71257;52.192;5.654;2023-08-07T08:35:39;6.63;;;2.13;;
81821;SDS011;71257;52.192;5.654;2023-08-07T08:38:05;8.25;;;2.22;;
81821;SDS011;71257;52.192;5.654;2023-08-07T08:40:31;6.68;;;2.83;;
81821;SDS011;71257;52.192;5.654;2023-08-07T08:42:57;7.97;;;2.55;;
81821;SDS011;71257;52.192;5.654;2023-08-07T08:45:26;8.48;;;2.80;;
81821;SDS011;71257;52.192;5.654;2023-08-07T08:47:54;6.15;;;2.70;;
81821;SDS011;71257;52.192;5.654;2023-08-07T08:50:24;8.57;;;2.22;;
81821;SDS011;71257;52.192;5.654;2023-08-07T08:52:51;5.78;;;2.20;;
81821;SDS011;71257;52.192;5.654;2023-08-07T08:55:19;6.55;;;2.17;;
81821;SDS011;71257;52.192;5.654;2023-08-07T08:57:46;7.28;;;2.03;;
81821;SDS011;71257;52.192;5.654;2023-08-07T09:00:12;6.68;;;2.28;;
81821;SDS011;71257;52.192;5.654;2023-08-07T09:02:44;4.68;;;1.60;;
81821;SDS011;71257;52.192;5.654;2023-08-07T09:05:10;5.95;;;2.20;;
81821;SDS011;71257;52.192;5.654;2023-08-07T09:07:35;6.00;;;2.08;;
81821;SDS011;71257;52.192;5.654;2023-08-07T09:10:02;5.95;;;1.98;;
81821;SDS011;71257;52.192;5.654;2023-08-07T09:12:29;4.53;;;2.17;;
81821;SDS011;71257;52.192;5.654;2023-08-07T09:14:58;9.65;;;2.53;;
81821;SDS011;71257;52.192;5.654;2023-08-07T09:17:28;7.25;;;2.17;;
81821;SDS011;71257;52.192;5.654;2023-08-07T09:19:56;5.13;;;1.88;;
81821;SDS011;71257;52.192;5.654;2023-08-07T09:22:22;5.32;;;1.83;;
81821;SDS011;71257;52.192;5.654;2023-08-07T09:24:47;8.02;;;2.28;;
81821;SDS011;71257;52.192;5.654;2023-08-07T09:27:13;5.13;;;1.77;;
81821;SDS011;71257;52.192;5.654;2023-08-07T09:29:40;4.57;;;2.00;;
81821;SDS011;71257;52.192;5.654;2023-08-07T09:32:06;4.13;;;1.80;;
81821;SDS011;71257;52.192;5.654;2023-08-07T09:34:33;5.97;;;2.30;;
81821;SDS011;71257;52.192;5.654;2023-08-07T09:36:58;5.22;;;2.17;;
81821;SDS011;71257;52.192;5.654;2023-08-07T09:39:24;4.63;;;1.95;;
81821;SDS011;71257;52.192;5.654;2023-08-07T09:41:51;7.25;;;2.00;;
81821;SDS011;71257;52.192;5.654;2023-08-07T09:44:17;5.70;;;2.05;;
81821;SDS011;71257;52.192;5.654;2023-08-07T09:46:43;4.60;;;1.63;;
81821;SDS011;71257;52.192;5.654;2023-08-07T09:49:09;3.42;;;2.15;;
81821;SDS011;71257;52.192;5.654;2023-08-07T09:51:49;5.65;;;1.90;;
81821;SDS011;71257;52.192;5.654;2023-08-07T09:54:15;5.25;;;1.75;;
81821;SDS011;71257;52.192;5.654;2023-08-07T09:56:41;5.15;;;2.63;;
81821;SDS011;71257;52.192;5.654;2023-08-07T09:59:07;5.10;;;1.92;;
81821;SDS011;71257;52.192;5.654;2023-08-07T10:01:33;5.32;;;1.98;;
81821;SDS011;71257;52.192;5.654;2023-08-07T10:04:02;6.20;;;2.42;;
81821;SDS011;71257;52.192;5.654;2023-08-07T10:06:27;5.75;;;1.95;;
81821;SDS011;71257;52.192;5.654;2023-08-07T10:08:53;4.93;;;2.05;;
81821;SDS011;71257;52.192;5.654;2023-08-07T10:11:19;5.07;;;2.05;;
81821;SDS011;71257;52.192;5.654;2023-08-07T10:13:45;5.03;;;2.00;;
81821;SDS011;71257;52.192;5.654;2023-08-07T10:16:12;5.68;;;2.10;;
81821;SDS011;71257;52.192;5.654;2023-08-07T10:18:38;4.35;;;2.30;;
81821;SDS011;71257;52.192;5.654;2023-08-07T10:21:05;3.42;;;1.90;;
81821;SDS011;71257;52.192;5.654;2023-08-07T10:23:35;3.92;;;1.83;;
81821;SDS011;71257;52.192;5.654;2023-08-07T10:26:03;4.72;;;1.95;;
81821;SDS011;71257;52.192;5.654;2023-08-07T10:28:31;6.53;;;2.33;;
81821;SDS011;71257;52.192;5.654;2023-08-07T10:31:02;5.45;;;2.50;;
81821;SDS011;71257;52.192;5.654;2023-08-07T10:33:29;7.57;;;2.47;;
81821;SDS011;71257;52.192;5.654;2023-08-07T10:35:57;5.80;;;2.53;;
81821;SDS011;71257;52.192;5.654;2023-08-07T10:38:24;5.43;;;2.45;;
81821;SDS011;71257;52.192;5.654;2023-08-07T10:40:58;7.28;;;2.35;;
81821;SDS011;71257;52.192;5.654;2023-08-07T10:43:36;5.72;;;2.00;;
81821;SDS011;71257;52.192;5.654;2023-08-07T10:46:08;4.97;;;2.15;;
81821;SDS011;71257;52.192;5.654;2023-08-07T10:48:39;6.78;;;2.47;;
81821;SDS011;71257;52.192;5.654;2023-08-07T10:51:17;4.70;;;1.92;;
81821;SDS011;71257;52.192;5.654;2023-08-07T10:53:43;4.75;;;2.55;;
81821;SDS011;71257;52.192;5.654;2023-08-07T10:56:14;8.60;;;2.65;;
81821;SDS011;71257;52.192;5.654;2023-08-07T10:58:41;4.25;;;1.90;;
81821;SDS011;71257;52.192;5.654;2023-08-07T11:04:23;3.97;;;1.75;;
81821;SDS011;71257;52.192;5.654;2023-08-07T11:06:50;5.18;;;2.03;;
81821;SDS011;71257;52.192;5.654;2023-08-07T11:09:19;6.75;;;2.08;;
81821;SDS011;71257;52.192;5.654;2023-08-07T11:11:45;12.15;;;2.45;;
81821;SDS011;71257;52.192;5.654;2023-08-07T11:14:15;5.40;;;2.17;;
81821;SDS011;71257;52.192;5.654;2023-08-07T11:16:42;5.72;;;2.25;;
81821;SDS011;71257;52.192;5.654;2023-08-07T11:19:08;6.18;;;2.08;;
81821;SDS011;71257;52.192;5.654;2023-08-07T11:21:34;5.28;;;1.88;;
81821;SDS011;71257;52.192;5.654;2023-08-07T11:24:00;10.45;;;2.53;;
81821;SDS011;71257;52.192;5.654;2023-08-07T11:26:26;5.32;;;2.00;;
81821;SDS011;71257;52.192;5.654;2023-08-07T11:28:53;5.18;;;2.00;;
81821;SDS011;71257;52.192;5.654;2023-08-07T11:31:19;6.07;;;2.10;;
81821;SDS011;71257;52.192;5.654;2023-08-07T11:33:44;5.60;;;2.20;;
81821;SDS011;71257;52.192;5.654;2023-08-07T11:36:11;5.25;;;2.22;;
81821;SDS011;71257;52.192;5.654;2023-08-07T11:38:38;9.35;;;2.63;;
81821;SDS011;71257;52.192;5.654;2023-08-07T11:41:05;7.00;;;2.30;;
81821;SDS011;71257;52.192;5.654;2023-08-07T11:43:33;7.07;;;2.00;;
81821;SDS011;71257;52.192;5.654;2023-08-07T11:46:00;11.60;;;3.17;;
81821;SDS011;71257;52.192;5.654;2023-08-07T11:48:27;6.53;;;2.20;;
81821;SDS011;71257;52.192;5.654;2023-08-07T11:50:54;7.50;;;2.15;;
81821;SDS011;71257;52.192;5.654;2023-08-07T11:53:20;8.25;;;2.00;;
81821;SDS011;71257;52.192;5.654;2023-08-07T11:55:47;7.28;;;2.30;;
81821;SDS011;71257;52.192;5.654;2023-08-07T11:58:36;6.00;;;2.03;;
81821;SDS011;71257;52.192;5.654;2023-08-07T12:01:04;4.90;;;1.85;;
81821;SDS011;71257;52.192;5.654;2023-08-07T12:03:32;5.28;;;2.05;;
81821;SDS011;71257;52.192;5.654;2023-08-07T12:06:02;6.57;;;2.22;;
81821;SDS011;71257;52.192;5.654;2023-08-07T12:08:36;5.00;;;1.92;;
81821;SDS011;71257;52.192;5.654;2023-08-07T12:11:04;5.82;;;2.30;;
81821;SDS011;71257;52.192;5.654;2023-08-07T12:13:31;5.88;;;2.00;;
81821;SDS011;71257;52.192;5.654;2023-08-07T12:16:00;4.60;;;2.05;;
81821;SDS011;71257;52.192;5.654;2023-08-07T12:18:27;6.60;;;1.83;;
81821;SDS011;71257;52.192;5.654;2023-08-07T12:20:57;6.88;;;1.73;;
81821;SDS011;71257;52.192;5.654;2023-08-07T12:23:23;3.55;;;1.65;;
81821;SDS011;71257;52.192;5.654;2023-08-07T12:25:49;3.00;;;1.42;;
81821;SDS011;71257;52.192;5.654;2023-08-07T12:28:15;5.20;;;1.90;;
81821;SDS011;71257;52.192;5.654;2023-08-07T12:30:42;2.95;;;1.70;;
81821;SDS011;71257;52.192;5.654;2023-08-07T12:33:10;4.00;;;1.80;;
81821;SDS011;71257;52.192;5.654;2023-08-07T12:35:35;3.07;;;1.47;;
81821;SDS011;71257;52.192;5.654;2023-08-07T12:38:01;5.13;;;2.13;;
81821;SDS011;71257;52.192;5.654;2023-08-07T12:40:45;4.28;;;1.77;;
81821;SDS011;71257;52.192;5.654;2023-08-07T12:43:10;4.80;;;1.63;;
81821;SDS011;71257;52.192;5.654;2023-08-07T12:45:36;2.63;;;1.30;;
81821;SDS011;71257;52.192;5.654;2023-08-07T12:48:01;3.75;;;1.70;;
81821;SDS011;71257;52.192;5.654;2023-08-07T12:50:27;4.35;;;1.83;;
81821;SDS011;71257;52.192;5.654;2023-08-07T12:52:53;4.15;;;1.75;;
81821;SDS011;71257;52.192;5.654;2023-08-07T12:55:19;3.20;;;1.90;;
81821;SDS011;71257;52.192;5.654;2023-08-07T12:57:44;4.38;;;2.00;;
81821;SDS011;71257;52.192;5.654;2023-08-07T13:00:10;6.47;;;1.98;;
81821;SDS011;71257;52.192;5.654;2023-08-07T13:02:42;5.18;;;2.15;;
81821;SDS011;71257;52.192;5.654;2023-08-07T13:05:09;5.93;;;1.65;;
81821;SDS011;71257;52.192;5.654;2023-08-07T13:07:36;7.75;;;1.92;;
81821;SDS011;71257;52.192;5.654;2023-08-07T13:10:03;4.65;;;1.85;;
81821;SDS011;71257;52.192;5.654;2023-08-07T13:14:58;4.57;;;1.83;;
81821;SDS011;71257;52.192;5.654;2023-08-07T13:17:24;4.15;;;2.10;;
81821;SDS011;71257;52.192;5.654;2023-08-07T13:19:49;5.13;;;2.40;;
81821;SDS011;71257;52.192;5.654;2023-08-07T13:22:15;5.80;;;1.83;;
81821;SDS011;71257;52.192;5.654;2023-08-07T13:24:40;3.60;;;1.58;;
81821;SDS011;71257;52.192;5.654;2023-08-07T13:27:05;5.07;;;1.83;;
81821;SDS011;71257;52.192;5.654;2023-08-07T13:29:31;5.13;;;1.80;;
81821;SDS011;71257;52.192;5.654;2023-08-07T13:31:56;3.50;;;1.60;;
81821;SDS011;71257;52.192;5.654;2023-08-07T13:34:22;3.37;;;1.67;;
81821;SDS011;71257;52.192;5.654;2023-08-07T13:36:47;3.38;;;1.77;;
81821;SDS011;71257;52.192;5.654;2023-08-07T13:39:12;4.40;;;2.17;;
81821;SDS011;71257;52.192;5.654;2023-08-07T13:41:38;4.18;;;1.70;;
81821;SDS011;71257;52.192;5.654;2023-08-07T13:44:04;4.07;;;2.22;;
81821;SDS011;71257;52.192;5.654;2023-08-07T13:46:29;4.20;;;2.05;;
81821;SDS011;71257;52.192;5.654;2023-08-07T13:48:55;3.17;;;1.67;;
81821;SDS011;71257;52.192;5.654;2023-08-07T13:51:20;6.20;;;2.10;;
81821;SDS011;71257;52.192;5.654;2023-08-07T13:53:46;7.32;;;2.83;;
81821;SDS011;71257;52.192;5.654;2023-08-07T13:56:11;3.13;;;1.67;;
81821;SDS011;71257;52.192;5.654;2023-08-07T13:58:39;3.72;;;1.70;;
81821;SDS011;71257;52.192;5.654;2023-08-07T14:01:04;3.20;;;1.52;;
81821;SDS011;71257;52.192;5.654;2023-08-07T14:03:30;2.60;;;1.30;;
81821;SDS011;71257;52.192;5.654;2023-08-07T14:05:55;3.88;;;1.60;;
81821;SDS011;71257;52.192;5.654;2023-08-07T14:08:21;3.85;;;1.63;;
81821;SDS011;71257;52.192;5.654;2023-08-07T14:10:46;4.78;;;1.73;;
81821;SDS011;71257;52.192;5.654;2023-08-07T14:13:12;3.80;;;1.60;;
81821;SDS011;71257;52.192;5.654;2023-08-07T14:15:37;3.38;;;1.52;;
81821;SDS011;71257;52.192;5.654;2023-08-07T14:18:03;4.35;;;1.85;;
81821;SDS011;71257;52.192;5.654;2023-08-07T14:20:28;5.53;;;1.77;;
81821;SDS011;71257;52.192;5.654;2023-08-07T14:22:54;3.58;;;1.70;;
81821;SDS011;71257;52.192;5.654;2023-08-07T14:25:19;5.18;;;1.52;;
81821;SDS011;71257;52.192;5.654;2023-08-07T14:27:47;3.58;;;1.73;;
81821;SDS011;71257;52.192;5.654;2023-08-07T14:30:13;4.13;;;1.70;;
81821;SDS011;71257;52.192;5.654;2023-08-07T14:32:39;3.45;;;1.70;;
81821;SDS011;71257;52.192;5.654;2023-08-07T14:35:05;4.32;;;1.67;;
81821;SDS011;71257;52.192;5.654;2023-08-07T14:37:30;3.63;;;1.70;;
81821;SDS011;71257;52.192;5.654;2023-08-07T14:39:56;5.63;;;1.70;;
81821;SDS011;71257;52.192;5.654;2023-08-07T14:42:21;4.55;;;1.80;;
81821;SDS011;71257;52.192;5.654;2023-08-07T14:44:48;5.25;;;1.98;;
81821;SDS011;71257;52.192;5.654;2023-08-07T14:47:13;4.27;;;1.80;;
81821;SDS011;71257;52.192;5.654;2023-08-07T14:49:39;5.38;;;1.50;;